Time;durP1;ratioP1;P1;durP2;ratioP2;P2;SDS_P1;SDS_P2;PMS_P1;PMS_P2;Temp;Humidity;BMP_temperature;BMP_pressure;BME280_temperature;BME280_humidity;BME280_pressure;Samples;Min_cycle;Max_cycle;Signal;HPM_P1;HPM_P2
2023/04/17 00:00:08;;;;;;;23.77;19.20;;;11.90;99.90;;;;;;5046401;28;20548;-83
2023/04/17 00:02:38;;;;;;;25.77;21.10;;;11.80;99.90;;;;;;5038261;28;20527;-84
2023/04/17 00:05:07;;;;;;;22.97;20.10;;;11.90;99.90;;;;;;5039028;28;20485;-84
2023/04/17 00:07:34;;;;;;;23.37;19.33;;;11.90;99.90;;;;;;5038917;28;20452;-84
2023/04/17 00:10:00;;;;;;;27.20;21.47;;;11.90;99.90;;;;;;5038021;28;20459;-85
2023/04/17 00:12:27;;;;;;;33.20;22.27;;;11.80;99.90;;;;;;5037598;28;20989;-83
2023/04/17 00:14:55;;;;;;;27.43;22.30;;;11.70;99.90;;;;;;5037523;28;20840;-83
2023/04/17 00:17:22;;;;;;;27.40;20.43;;;11.70;99.90;;;;;;5038084;28;20482;-83
2023/04/17 00:19:49;;;;;;;26.00;20.90;;;11.70;99.90;;;;;;5036903;28;20537;-83
2023/04/17 00:22:16;;;;;;;25.27;20.83;;;11.70;99.90;;;;;;5037009;28;20946;-84
2023/04/17 00:24:43;;;;;;;27.23;21.73;;;11.60;99.90;;;;;;5038117;28;20434;-84
2023/04/17 00:27:09;;;;;;;25.43;20.20;;;11.60;99.90;;;;;;5038321;28;20449;-83
2023/04/17 00:29:36;;;;;;;28.40;20.80;;;11.60;99.90;;;;;;5038029;28;20454;-82
2023/04/17 00:32:05;;;;;;;24.93;19.47;;;11.70;99.90;;;;;;5055709;28;20456;-85
2023/04/17 00:34:32;;;;;;;32.17;22.93;;;11.70;99.90;;;;;;5043600;28;20463;-85
2023/04/17 00:36:59;;;;;;;22.10;19.70;;;11.60;99.90;;;;;;5037742;28;20459;-83
2023/04/17 00:39:26;;;;;;;24.47;20.00;;;11.60;99.90;;;;;;5037375;28;20854;-85
2023/04/17 00:41:52;;;;;;;26.07;21.50;;;11.70;99.90;;;;;;5037005;28;20550;-83
2023/04/17 00:44:19;;;;;;;27.07;21.33;;;11.70;99.90;;;;;;5037645;28;20477;-84
2023/04/17 00:46:46;;;;;;;24.47;20.43;;;11.70;99.90;;;;;;5037742;28;20485;-83
2023/04/17 00:49:14;;;;;;;22.20;19.13;;;11.80;99.90;;;;;;5038728;28;20479;-83
2023/04/17 00:51:41;;;;;;;24.13;21.07;;;11.80;99.90;;;;;;5037098;28;20449;-82
2023/04/17 00:54:09;;;;;;;23.40;20.33;;;11.70;99.90;;;;;;5038132;28;20483;-83
2023/04/17 00:56:36;;;;;;;27.40;20.57;;;11.60;99.90;;;;;;5037672;28;20946;-81
2023/04/17 00:59:06;;;;;;;25.00;19.40;;;11.50;99.90;;;;;;5038138;28;20486;-83
2023/04/17 01:01:33;;;;;;;28.17;21.23;;;11.50;99.90;;;;;;5037168;28;20950;-84
2023/04/17 01:04:00;;;;;;;26.23;21.70;;;11.60;99.90;;;;;;5038468;28;20469;-83
2023/04/17 01:06:28;;;;;;;24.50;20.60;;;11.50;99.90;;;;;;5038224;28;20485;-84
2023/04/17 01:08:56;;;;;;;23.17;18.93;;;11.50;99.90;;;;;;5037666;28;20458;-83
2023/04/17 01:11:23;;;;;;;27.37;20.20;;;11.50;99.90;;;;;;5036663;28;20449;-82
2023/04/17 01:13:50;;;;;;;27.40;22.20;;;11.50;99.90;;;;;;5036693;28;20477;-82
2023/04/17 01:16:17;;;;;;;25.93;20.83;;;11.40;99.90;;;;;;5036898;28;20464;-84
2023/04/17 01:18:45;;;;;;;22.90;19.60;;;11.30;99.90;;;;;;5037193;28;20492;-82
2023/04/17 01:21:12;;;;;;;22.60;20.20;;;11.20;99.90;;;;;;5035471;28;20449;-82
2023/04/17 01:23:45;;;;;;;26.20;20.60;;;11.20;99.90;;;;;;5036025;28;20481;-81
2023/04/17 01:26:17;;;;;;;23.43;20.37;;;11.20;99.90;;;;;;5035518;28;20504;-84
2023/04/17 01:28:44;;;;;;;23.50;18.40;;;11.20;99.90;;;;;;5035960;28;20437;-82
2023/04/17 01:31:15;;;;;;;24.27;20.23;;;11.10;99.90;;;;;;5035714;28;20463;-82
2023/04/17 01:33:42;;;;;;;26.20;20.43;;;11.10;99.90;;;;;;5036059;28;20476;-83
2023/04/17 01:36:09;;;;;;;23.57;19.03;;;11.10;99.90;;;;;;5035989;28;20843;-82
2023/04/17 01:38:36;;;;;;;22.13;19.70;;;11.20;99.90;;;;;;5035646;28;20491;-81
2023/04/17 01:41:08;;;;;;;23.10;20.00;;;11.20;99.90;;;;;;5035373;28;20449;-83
2023/04/17 01:43:38;;;;;;;22.13;19.20;;;11.20;99.90;;;;;;5034771;28;20488;-83
2023/04/17 01:46:05;;;;;;;25.47;20.50;;;11.20;99.90;;;;;;5034525;28;20457;-83
2023/04/17 01:48:32;;;;;;;24.47;20.27;;;11.10;99.90;;;;;;5034376;28;20477;-83
2023/04/17 01:50:58;;;;;;;24.00;19.07;;;11.00;99.90;;;;;;5034146;28;21006;-85
2023/04/17 01:53:26;;;;;;;23.57;19.60;;;11.00;99.90;;;;;;5034548;28;20484;-83
2023/04/17 01:55:53;;;;;;;34.63;20.77;;;11.00;99.90;;;;;;5035493;28;20461;-82
2023/04/17 01:58:20;;;;;;;25.70;20.90;;;11.00;99.90;;;;;;5035042;28;20482;-83
2023/04/17 02:00:48;;;;;;;25.50;20.00;;;10.90;99.90;;;;;;5034267;28;20458;-82
2023/04/17 02:03:15;;;;;;;23.90;19.33;;;10.80;99.90;;;;;;5035716;28;20475;-84
2023/04/17 02:05:45;;;;;;;26.87;20.03;;;10.80;99.90;;;;;;5033521;28;20445;-82
2023/04/17 02:08:12;;;;;;;24.03;20.33;;;10.70;99.90;;;;;;5034746;28;20585;-81
2023/04/17 02:10:39;;;;;;;25.20;21.43;;;10.80;99.90;;;;;;5034291;28;20460;-83
2023/04/17 02:13:06;;;;;;;25.40;21.30;;;10.80;99.90;;;;;;5034866;28;20921;-84
2023/04/17 02:15:33;;;;;;;22.57;19.10;;;10.70;97.90;;;;;;5034457;28;20855;-82
2023/04/17 02:18:02;;;;;;;24.73;19.03;;;10.80;99.90;;;;;;5034653;28;21032;-83
2023/04/17 02:20:29;;;;;;;23.70;19.33;;;10.70;75.50;;;;;;5033537;28;20497;-84
2023/04/17 02:22:56;;;;;;;24.40;19.77;;;10.60;67.70;;;;;;5033333;28;20573;-84
2023/04/17 02:25:23;;;;;;;23.40;18.80;;;10.50;94.40;;;;;;5034441;28;20447;-84
2023/04/17 02:27:49;;;;;;;20.70;17.90;;;10.60;91.70;;;;;;5033718;28;20452;-82
2023/04/17 02:30:16;;;;;;;24.63;18.77;;;10.70;63.60;;;;;;5035142;28;20511;-84
2023/04/17 02:32:44;;;;;;;23.03;18.47;;;10.70;51.80;;;;;;5033715;28;20475;-82
2023/04/17 02:35:12;;;;;;;22.10;18.33;;;10.60;21.10;;;;;;5032552;28;20975;-83
2023/04/17 02:37:39;;;;;;;21.23;17.50;;;10.60;6.00;;;;;;5034597;28;20459;-83
2023/04/17 02:40:08;;;;;;;24.00;17.30;;;10.50;1.00;;;;;;5034025;28;20480;-82
2023/04/17 02:42:35;;;;;;;24.93;19.00;;;10.50;1.00;;;;;;5035612;28;20476;-84
2023/04/17 02:45:02;;;;;;;23.23;17.40;;;10.50;3.50;;;;;;5038127;28;20459;-83
2023/04/17 02:47:29;;;;;;;25.47;18.60;;;10.50;3.20;;;;;;5037935;28;20546;-82
2023/04/17 02:49:58;;;;;;;22.83;18.43;;;10.60;1.00;;;;;;5037186;28;20957;-82
2023/04/17 02:52:27;;;;;;;21.57;18.33;;;10.50;1.00;;;;;;5036349;28;20479;-84
2023/04/17 02:54:55;;;;;;;19.63;17.10;;;10.60;1.00;;;;;;5037850;28;20465;-82
2023/04/17 02:57:22;;;;;;;24.30;18.37;;;10.50;1.00;;;;;;5036944;28;20457;-85
2023/04/17 02:59:49;;;;;;;21.43;18.83;;;10.50;1.00;;;;;;5037114;28;20476;-81
2023/04/17 03:02:20;;;;;;;20.87;17.50;;;10.50;1.00;;;;;;5035883;28;20466;-82
2023/04/17 03:04:49;;;;;;;24.63;19.20;;;10.50;1.00;;;;;;5037431;28;20467;-83
2023/04/17 03:07:17;;;;;;;22.07;18.77;;;10.50;1.00;;;;;;5037265;28;20453;-83
2023/04/17 03:09:46;;;;;;;26.07;19.60;;;10.50;1.00;;;;;;5037675;28;20463;-82
2023/04/17 03:12:12;;;;;;;23.87;19.10;;;10.50;1.00;;;;;;5036887;28;20550;-82
2023/04/17 03:14:39;;;;;;;24.97;18.70;;;10.40;1.00;;;;;;5036994;28;20459;-82
2023/04/17 03:17:06;;;;;;;21.90;18.20;;;10.30;1.00;;;;;;5038180;28;20479;-83
2023/04/17 03:19:33;;;;;;;27.93;21.33;;;10.30;7.00;;;;;;5037908;28;20618;-81
2023/04/17 03:22:01;;;;;;;25.23;20.60;;;10.30;1.00;;;;;;5016648;28;20441;-82
2023/04/17 03:24:28;;;;;;;25.07;20.23;;;10.30;1.00;;;;;;5017688;28;20468;-82
2023/04/17 03:26:57;;;;;;;26.47;21.10;;;10.40;12.40;;;;;;5035918;28;21034;-82
2023/04/17 03:29:23;;;;;;;27.73;19.97;;;10.30;13.40;;;;;;5036917;28;20456;-81
2023/04/17 03:31:50;;;;;;;27.97;22.00;;;10.20;23.90;;;;;;5036675;28;20463;-82
2023/04/17 03:34:17;;;;;;;25.70;21.07;;;10.20;32.30;;;;;;5037218;28;20479;-83
2023/04/17 03:36:45;;;;;;;29.80;21.80;;;10.20;35.70;;;;;;5037489;28;20466;-83
2023/04/17 03:39:12;;;;;;;27.00;22.80;;;10.20;35.50;;;;;;5036956;28;20488;-82
2023/04/17 03:41:39;;;;;;;29.00;20.57;;;10.10;49.20;;;;;;5036534;28;20831;-82
2023/04/17 03:44:07;;;;;;;25.40;20.80;;;10.10;53.70;;;;;;5036541;28;20476;-83
2023/04/17 03:46:34;;;;;;;27.70;22.27;;;10.10;57.20;;;;;;5040359;28;20493;-82
2023/04/17 03:49:01;;;;;;;27.87;23.40;;;10.10;82.90;;;;;;5053510;28;20456;-82
2023/04/17 03:51:28;;;;;;;31.33;22.60;;;10.10;98.90;;;;;;5043352;28;20452;-83
2023/04/17 03:53:55;;;;;;;26.67;21.53;;;10.00;92.10;;;;;;5036357;28;20480;-83
2023/04/17 03:56:22;;;;;;;27.00;21.87;;;10.00;99.90;;;;;;5036648;28;20976;-83
2023/04/17 03:58:48;;;;;;;32.50;23.47;;;10.10;98.40;;;;;;5048344;28;20515;-82
2023/04/17 04:01:17;;;;;;;30.60;23.47;;;10.10;87.10;;;;;;5046743;28;20516;-81
2023/04/17 04:03:44;;;;;;;25.83;21.23;;;10.10;55.20;;;;;;5044607;28;20837;-81
2023/04/17 04:06:11;;;;;;;25.67;22.03;;;10.10;44.10;;;;;;5028044;28;20551;-83
2023/04/17 04:08:37;;;;;;;32.97;23.33;;;10.10;39.20;;;;;;5029378;28;20453;-82
2023/04/17 04:11:04;;;;;;;28.20;22.37;;;10.10;25.80;;;;;;5055172;28;20459;-82
2023/04/17 04:13:32;;;;;;;29.10;22.70;;;10.10;28.30;;;;;;5039357;28;20547;-82
2023/04/17 04:15:59;;;;;;;26.10;21.60;;;10.00;29.30;;;;;;5039895;28;20467;-83
2023/04/17 04:18:27;;;;;;;28.67;21.70;;;10.00;36.40;;;;;;5035698;28;20529;-83
2023/04/17 04:20:54;;;;;;;29.27;22.10;;;10.00;48.10;;;;;;5049634;28;20463;-84
2023/04/17 04:23:23;;;;;;;29.43;21.37;;;10.00;48.20;;;;;;5051430;28;20567;-83
2023/04/17 04:25:50;;;;;;;25.90;21.20;;;10.00;47.10;;;;;;5048329;28;20479;-83
2023/04/17 04:28:17;;;;;;;28.93;21.50;;;10.10;31.60;;;;;;5048291;28;20483;-82
2023/04/17 04:30:49;;;;;;;25.80;20.77;;;10.10;22.60;;;;;;5048525;28;20465;-83
2023/04/17 04:33:18;;;;;;;26.03;21.40;;;10.10;18.50;;;;;;5048610;28;21197;-84
2023/04/17 04:35:47;;;;;;;26.90;21.43;;;10.10;11.50;;;;;;5048684;28;20453;-83
2023/04/17 04:38:14;;;;;;;24.67;20.67;;;10.10;13.50;;;;;;5043995;28;20456;-82
2023/04/17 04:40:44;;;;;;;27.83;21.83;;;10.00;32.20;;;;;;5038986;28;20586;-82
2023/04/17 04:43:10;;;;;;;32.23;23.60;;;10.10;40.30;;;;;;5036961;28;20819;-81
2023/04/17 04:45:37;;;;;;;29.07;22.57;;;10.10;32.60;;;;;;5037742;28;20460;-83
2023/04/17 04:48:04;;;;;;;28.73;20.20;;;10.00;24.30;;;;;;5036737;28;20459;-86
2023/04/17 04:50:32;;;;;;;28.20;21.27;;;10.10;42.90;;;;;;5035950;28;20968;-83
2023/04/17 04:53:00;;;;;;;29.03;22.13;;;10.00;54.40;;;;;;5037346;28;20530;-83
2023/04/17 04:55:29;;;;;;;26.63;21.27;;;10.10;74.20;;;;;;5036307;28;20457;-81
2023/04/17 04:57:56;;;;;;;27.13;22.00;;;10.10;59.10;;;;;;5035431;28;20542;-81
2023/04/17 05:00:23;;;;;;;31.87;23.23;;;10.10;61.80;;;;;;5035786;28;20490;-81
2023/04/17 05:02:50;;;;;;;29.93;21.13;;;10.00;70.60;;;;;;5033831;28;20822;-80
2023/04/17 05:05:17;;;;;;;30.60;24.57;;;10.10;80.80;;;;;;5040327;28;20456;-82
2023/04/17 05:07:44;;;;;;;28.50;21.53;;;10.20;74.50;;;;;;5034179;28;20474;-81
2023/04/17 05:10:12;;;;;;;28.77;22.97;;;10.20;99.90;;;;;;5023599;28;20455;-82
2023/04/17 05:12:39;;;;;;;32.90;23.50;;;10.30;96.40;;;;;;5033746;28;20483;-84
2023/04/17 05:15:07;;;;;;;29.53;22.20;;;10.30;99.10;;;;;;5045582;28;20458;-81
2023/04/17 05:17:35;;;;;;;28.23;22.43;;;10.30;75.00;;;;;;5040663;28;20452;-82
2023/04/17 05:20:04;;;;;;;28.57;21.00;;;10.40;67.50;;;;;;5047163;28;20498;-82
2023/04/17 05:22:32;;;;;;;28.47;22.70;;;10.30;27.60;;;;;;5038003;28;20483;-82
2023/04/17 05:24:59;;;;;;;25.37;20.37;;;10.30;40.70;;;;;;5045167;28;20455;-82
2023/04/17 05:27:27;;;;;;;28.07;22.97;;;10.40;10.30;;;;;;5045555;28;20460;-81
2023/04/17 05:29:54;;;;;;;26.70;21.17;;;10.20;2.30;;;;;;5051437;28;20461;-83
2023/04/17 05:32:21;;;;;;;26.67;20.87;;;10.30;14.00;;;;;;5034652;28;20507;-82
2023/04/17 05:34:48;;;;;;;26.27;21.17;;;10.30;14.70;;;;;;5039016;28;20456;-80
2023/04/17 05:37:14;;;;;;;24.90;19.93;;;10.40;1.00;;;;;;5042762;28;20498;-82
2023/04/17 05:39:41;;;;;;;24.67;19.67;;;10.40;1.00;;;;;;5048887;28;20490;-81
2023/04/17 05:42:08;;;;;;;26.50;20.27;;;10.40;1.00;;;;;;5044046;28;20863;-81
2023/04/17 05:44:36;;;;;;;24.33;18.77;;;10.40;1.00;;;;;;5041651;28;20463;-83
2023/04/17 05:47:03;;;;;;;22.30;19.17;;;10.40;1.00;;;;;;5037579;28;20461;-81
2023/04/17 05:49:30;;;;;;;26.00;20.57;;;10.50;1.00;;;;;;5033328;28;20471;-81
2023/04/17 05:51:57;;;;;;;26.43;18.93;;;10.50;1.00;;;;;;5028738;28;20494;-82
2023/04/17 05:54:23;;;;;;;27.27;19.40;;;10.40;1.00;;;;;;5034256;28;20535;-81
2023/04/17 05:56:50;;;;;;;25.60;19.97;;;10.50;1.00;;;;;;5030754;28;20449;-82
2023/04/17 05:59:17;;;;;;;28.33;19.10;;;10.50;1.00;;;;;;5030742;28;20489;-83
2023/04/17 06:01:45;;;;;;;23.50;19.53;;;10.50;1.00;;;;;;5028236;28;20990;-81
2023/04/17 06:04:13;;;;;;;28.70;20.90;;;10.50;1.00;;;;;;5030483;28;20495;-82
2023/04/17 06:06:40;;;;;;;24.50;19.03;;;10.40;1.00;;;;;;5034148;28;20461;-81
2023/04/17 06:09:08;;;;;;;25.90;20.80;;;10.60;1.00;;;;;;5044761;28;20451;-81
2023/04/17 06:11:35;;;;;;;29.40;22.10;;;10.60;1.00;;;;;;5035998;28;20518;-82
2023/04/17 06:14:02;;;;;;;25.60;20.23;;;10.60;1.00;;;;;;5029579;28;20575;-81
2023/04/17 06:16:29;;;;;;;26.07;21.20;;;10.60;1.00;;;;;;5036201;28;20459;-80
2023/04/17 06:18:57;;;;;;;28.90;20.57;;;10.50;1.00;;;;;;5035004;28;20467;-82
2023/04/17 06:21:24;;;;;;;28.63;21.80;;;10.50;1.00;;;;;;5035118;28;20556;-80
2023/04/17 06:23:51;;;;;;;27.30;21.23;;;10.50;1.00;;;;;;5035292;28;20515;-81
2023/04/17 06:26:18;;;;;;;24.03;21.03;;;10.60;1.00;;;;;;5036844;28;20550;-80
2023/04/17 06:28:45;;;;;;;26.20;20.67;;;10.60;1.00;;;;;;5036244;28;20546;-83
2023/04/17 06:31:12;;;;;;;28.83;21.70;;;10.60;1.00;;;;;;5042502;28;20552;-81
2023/04/17 06:33:39;;;;;;;27.30;20.60;;;10.70;1.00;;;;;;5033262;28;20482;-81
2023/04/17 06:36:07;;;;;;;29.50;21.10;;;10.70;1.00;;;;;;5042634;28;20534;-80
2023/04/17 06:38:34;;;;;;;26.27;22.17;;;10.60;1.00;;;;;;5042419;28;20472;-80
2023/04/17 06:41:01;;;;;;;29.00;22.60;;;10.60;1.00;;;;;;5039163;28;21013;-81
2023/04/17 06:43:28;;;;;;;26.30;21.90;;;10.60;1.00;;;;;;5046849;28;20471;-81
2023/04/17 06:45:55;;;;;;;27.97;22.77;;;10.60;1.00;;;;;;5041164;28;20949;-81
2023/04/17 06:48:21;;;;;;;30.03;23.43;;;10.40;1.00;;;;;;5037618;28;20463;-81
2023/04/17 06:50:48;;;;;;;29.67;21.93;;;10.40;1.00;;;;;;5032655;28;20446;-82
2023/04/17 06:53:17;;;;;;;31.30;23.80;;;10.50;11.30;;;;;;5033346;28;20861;-83
2023/04/17 06:55:44;;;;;;;28.73;22.97;;;10.70;1.00;;;;;;5033785;28;20467;-82
2023/04/17 06:58:11;;;;;;;25.50;21.10;;;10.70;1.00;;;;;;5035570;28;20460;-82
2023/04/17 07:00:37;;;;;;;30.00;23.57;;;10.90;1.00;;;;;;5033073;28;20492;-82
2023/04/17 07:03:05;;;;;;;30.10;22.63;;;10.90;1.00;;;;;;5034016;28;20590;-81
2023/04/17 07:05:32;;;;;;;31.37;24.10;;;10.80;1.00;;;;;;5040117;28;20975;-84
2023/04/17 07:07:59;;;;;;;28.20;23.27;;;10.90;1.00;;;;;;5048090;28;20492;-82
2023/04/17 07:10:27;;;;;;;24.60;21.93;;;10.90;1.00;;;;;;5036721;28;20460;-83
2023/04/17 07:12:54;;;;;;;28.47;21.83;;;10.90;1.00;;;;;;5036305;28;20477;-82
2023/04/17 07:15:21;;;;;;;29.80;23.00;;;11.00;1.00;;;;;;5037523;28;20445;-83
2023/04/17 07:17:48;;;;;;;26.47;22.20;;;11.00;1.00;;;;;;5034026;28;20456;-83
2023/04/17 07:20:15;;;;;;;31.63;22.00;;;11.10;1.00;;;;;;5032976;28;20488;-83
2023/04/17 07:22:42;;;;;;;29.10;22.30;;;11.20;1.00;;;;;;5039401;28;20483;-83
2023/04/17 07:25:09;;;;;;;31.27;23.90;;;11.30;1.00;;;;;;5039900;28;20846;-81
2023/04/17 07:27:38;;;;;;;27.27;22.90;;;11.30;1.00;;;;;;5041477;28;20460;-80
2023/04/17 07:30:07;;;;;;;28.87;22.87;;;11.40;1.00;;;;;;5044246;28;20457;-82
2023/04/17 07:32:33;;;;;;;28.37;23.33;;;11.40;1.00;;;;;;5041924;28;21055;-81
2023/04/17 07:35:00;;;;;;;26.03;22.27;;;11.60;1.00;;;;;;5038693;28;20456;-81
2023/04/17 07:37:27;;;;;;;25.53;21.87;;;11.80;1.00;;;;;;5041652;28;20491;-82
2023/04/17 07:39:54;;;;;;;28.50;22.83;;;12.10;99.90;;;;;;5045454;28;20496;-83
2023/04/17 07:42:21;;;;;;;27.23;21.77;;;12.10;99.90;;;;;;5040496;28;20929;-83
2023/04/17 07:44:49;;;;;;;30.43;24.33;;;12.40;99.90;;;;;;5049497;28;20504;-81
2023/04/17 07:47:15;;;;;;;24.93;22.17;;;12.40;1.00;;;;;;5051370;28;20541;-81
2023/04/17 07:49:47;;;;;;;26.67;23.77;;;12.50;1.00;;;;;;5049111;28;20529;-81
2023/04/17 07:52:16;;;;;;;28.50;24.90;;;12.30;99.90;;;;;;5035078;28;20455;-83
2023/04/17 07:54:43;;;;;;;26.27;22.90;;;12.40;1.00;;;;;;5032976;28;20493;-81
2023/04/17 07:57:10;;;;;;;30.43;25.13;;;12.60;1.00;;;;;;5034764;28;20541;-83
2023/04/17 07:59:37;;;;;;;31.03;24.73;;;12.60;1.00;;;;;;5037488;28;20455;-82
2023/04/17 08:02:05;;;;;;;34.27;25.90;;;12.40;99.90;;;;;;5041015;28;20537;-83
2023/04/17 08:04:32;;;;;;;29.97;25.50;;;12.50;99.90;;;;;;5042739;28;20537;-83
2023/04/17 08:06:59;;;;;;;30.37;26.23;;;12.60;99.90;;;;;;5052744;28;20456;-82
2023/04/17 08:09:26;;;;;;;28.03;24.90;;;12.70;1.00;;;;;;5050879;28;20534;-82
2023/04/17 08:11:53;;;;;;;26.20;23.40;;;12.60;1.00;;;;;;5051204;28;20534;-81
2023/04/17 08:14:20;;;;;;;31.03;26.03;;;12.70;14.70;;;;;;5041714;28;20472;-83
2023/04/17 08:16:47;;;;;;;28.47;24.43;;;13.00;37.20;;;;;;5036251;28;20479;-82
2023/04/17 08:19:16;;;;;;;25.03;22.30;;;13.00;99.90;;;;;;5036468;28;20495;-82
2023/04/17 08:21:42;;;;;;;32.60;26.77;;;13.20;99.90;;;;;;5034004;28;20497;-83
2023/04/17 08:24:09;;;;;;;26.97;24.03;;;13.40;30.00;;;;;;5035341;28;20499;-84
2023/04/17 08:26:36;;;;;;;27.70;23.13;;;13.60;99.90;;;;;;5037350;28;20471;-82
2023/04/17 08:29:03;;;;;;;25.93;22.87;;;13.60;99.90;;;;;;5038209;28;20457;-83
2023/04/17 08:31:30;;;;;;;26.57;23.50;;;13.60;99.90;;;;;;5046526;28;20439;-82
2023/04/17 08:34:00;;;;;;;28.00;22.77;;;13.50;1.00;;;;;;5039992;28;21042;-82
2023/04/17 08:36:30;;;;;;;27.97;23.13;;;13.70;1.00;;;;;;5038322;28;20491;-85
2023/04/17 08:38:57;;;;;;;26.17;20.07;;;14.00;1.00;;;;;;5034853;28;20474;-83
2023/04/17 08:41:33;;;;;;;23.30;20.10;;;14.10;1.00;;;;;;5034783;28;20485;-83
2023/04/17 08:44:02;;;;;;;23.83;20.93;;;14.10;1.00;;;;;;5037920;28;20533;-82
2023/04/17 08:46:30;;;;;;;22.40;19.37;;;14.70;99.90;;;;;;5044557;28;20514;-84
2023/04/17 08:48:57;;;;;;;21.97;17.83;;;14.80;1.00;;;;;;5051111;28;20790;-82
2023/04/17 08:51:26;;;;;;;24.80;19.93;;;14.80;1.00;;;;;;5040418;28;20900;-82
2023/04/17 08:53:55;;;;;;;24.10;20.27;;;14.70;99.90;;;;;;5042100;28;20850;-83
2023/04/17 08:56:22;;;;;;;23.87;19.90;;;14.40;99.90;;;;;;5051452;28;20462;-84
2023/04/17 08:58:49;;;;;;;22.63;19.90;;;14.80;1.00;;;;;;5037026;28;20467;-85
2023/04/17 09:01:16;;;;;;;18.13;14.53;;;14.60;1.00;;;;;;5034448;28;20489;-83
2023/04/17 09:03:46;;;;;;;16.80;14.37;;;14.60;99.90;;;;;;5040690;28;20476;-83
2023/04/17 09:06:13;;;;;;;17.93;14.60;;;14.70;99.90;;;;;;5052475;28;20492;-83
2023/04/17 09:08:56;;;;;;;17.70;13.60;;;15.20;99.90;;;;;;5039565;28;20463;-84
2023/04/17 09:11:24;;;;;;;16.53;14.20;;;15.50;99.90;;;;;;5041387;28;20450;-83
2023/04/17 09:13:50;;;;;;;21.90;14.90;;;15.90;99.90;;;;;;5046265;28;21089;-83
2023/04/17 09:16:18;;;;;;;13.07;11.60;;;17.50;99.90;;;;;;5041373;28;20546;-84
2023/04/17 09:18:46;;;;;;;13.33;9.97;;;19.60;99.90;;;;;;5048799;28;20510;-84
2023/04/17 09:21:15;;;;;;;10.63;9.60;;;19.50;99.90;;;;;;5030366;28;20498;-82
2023/04/17 09:23:48;;;;;;;13.00;10.40;;;20.30;99.90;;;;;;5050024;28;20489;-84
2023/04/17 09:26:18;;;;;;;15.30;10.20;;;21.90;99.90;;;;;;5033253;28;20483;-83
2023/04/17 09:29:06;;;;;;;14.33;10.60;;;23.50;96.20;;;;;;5040205;28;20459;-84
2023/04/17 09:31:34;;;;;;;13.37;11.60;;;23.20;95.30;;;;;;5036203;28;20451;-83
2023/04/17 09:34:03;;;;;;;11.33;10.13;;;23.40;90.40;;;;;;5038224;28;20541;-84
2023/04/17 09:36:31;;;;;;;16.43;12.07;;;24.00;90.00;;;;;;5039713;28;20463;-84
2023/04/17 09:38:59;;;;;;;13.90;11.17;;;23.30;76.40;;;;;;5039313;28;20445;-83
2023/04/17 09:41:28;;;;;;;13.50;11.03;;;21.40;76.80;;;;;;5036831;28;20516;-84
2023/04/17 09:44:00;;;;;;;13.07;11.43;;;21.10;77.80;;;;;;5037948;28;20563;-84
2023/04/17 09:46:31;;;;;;;11.20;10.00;;;19.60;77.20;;;;;;5029045;28;20892;-84
2023/04/17 09:49:02;;;;;;;10.33;9.20;;;19.70;81.00;;;;;;5041769;28;20465;-85
2023/04/17 09:51:30;;;;;;;14.53;9.23;;;20.70;86.10;;;;;;5050838;28;20456;-84
2023/04/17 09:53:59;;;;;;;10.10;8.07;;;22.10;82.50;;;;;;5041680;28;20472;-84
2023/04/17 09:56:28;;;;;;;11.70;8.07;;;23.40;80.40;;;;;;5037437;28;20539;-84
2023/04/17 09:58:56;;;;;;;12.40;8.00;;;22.70;74.10;;;;;;5043776;28;20954;-84
2023/04/17 10:01:24;;;;;;;12.13;9.00;;;23.80;79.00;;;;;;5045471;28;20547;-84
2023/04/17 10:03:51;;;;;;;11.43;8.47;;;23.90;80.30;;;;;;5035385;28;21001;-84
2023/04/17 10:06:19;;;;;;;11.03;7.47;;;23.30;72.00;;;;;;5034185;28;20449;-84
2023/04/17 10:08:46;;;;;;;10.47;9.50;;;23.40;73.30;;;;;;5038100;28;20457;-84
2023/04/17 10:11:13;;;;;;;9.10;7.80;;;24.50;74.70;;;;;;5038454;28;20536;-83
2023/04/17 10:13:45;;;;;;;10.60;9.50;;;25.00;72.70;;;;;;5038627;28;20536;-83
2023/04/17 10:16:12;;;;;;;9.97;7.87;;;24.50;67.40;;;;;;5037088;28;20516;-84
2023/04/17 10:18:39;;;;;;;9.20;7.93;;;23.70;67.40;;;;;;5051839;28;20458;-84
2023/04/17 10:21:24;;;;;;;9.43;8.00;;;22.60;67.80;;;;;;5032594;28;20599;-83
2023/04/17 10:23:50;;;;;;;9.23;8.30;;;22.10;70.70;;;;;;5052113;22;20506;-83
2023/04/17 10:26:44;;;;;;;8.87;7.97;;;22.00;71.50;;;;;;5030682;28;20457;-82
2023/04/17 10:29:13;;;;;;;16.93;9.60;;;20.90;73.70;;;;;;5045999;28;20462;-82
2023/04/17 10:32:27;;;;;;;11.07;9.07;;;19.30;74.50;;;;;;5042688;28;20476;-81
2023/04/17 10:34:55;;;;;;;8.70;7.20;;;18.70;78.40;;;;;;5033908;28;20479;-82
2023/04/17 10:38:03;;;;;;;9.00;6.80;;;19.20;82.20;;;;;;5044258;28;20460;-82
2023/04/17 10:40:31;;;;;;;8.80;6.07;;;19.40;82.90;;;;;;5031465;28;20449;-81
2023/04/17 10:43:11;;;;;;;7.27;6.10;;;19.50;78.60;;;;;;5052002;28;20823;-83
2023/04/17 10:46:11;;;;;;;7.30;6.40;;;20.50;81.80;;;;;;5037463;28;20496;-82
2023/04/17 10:48:41;;;;;;;9.90;6.30;;;23.10;77.50;;;;;;4977164;28;20483;-83
2023/04/17 10:51:39;;;;;;;8.77;5.67;;;23.30;74.40;;;;;;5025897;28;20463;-84
2023/04/17 10:54:09;;;;;;;7.20;6.47;;;23.50;71.40;;;;;;5033710;28;20515;-82
2023/04/17 10:56:38;;;;;;;8.50;5.90;;;22.10;67.60;;;;;;5034960;28;20926;-82
2023/04/17 10:59:06;;;;;;;7.50;6.80;;;21.30;71.80;;;;;;5034884;28;20545;-81
2023/04/17 11:01:40;;;;;;;8.93;6.17;;;20.20;69.00;;;;;;5030896;28;20502;-81
2023/04/17 11:04:08;;;;;;;7.57;6.40;;;19.80;72.20;;;;;;5041758;28;20471;-82
2023/04/17 11:06:39;;;;;;;22.83;8.30;;;19.70;78.60;;;;;;5055817;28;20514;-81
2023/04/17 11:09:09;;;;;;;7.27;6.50;;;19.80;77.30;;;;;;5047546;28;20490;-80
2023/04/17 11:11:38;;;;;;;8.00;6.90;;;19.60;76.00;;;;;;5030573;28;20440;-80
2023/04/17 11:14:08;;;;;;;8.10;6.70;;;20.00;76.70;;;;;;5050062;28;20476;-81
2023/04/17 11:16:37;;;;;;;6.40;5.43;;;21.50;76.40;;;;;;5048884;28;20479;-81
2023/04/17 11:19:05;;;;;;;7.13;5.10;;;23.60;76.80;;;;;;5040811;28;20949;-81
2023/04/17 11:21:32;;;;;;;5.83;5.23;;;24.50;65.80;;;;;;5038919;28;20505;-82
2023/04/17 11:24:02;;;;;;;9.03;7.70;;;25.50;68.80;;;;;;5047723;28;20475;-81
2023/04/17 11:26:29;;;;;;;6.70;5.53;;;25.50;68.40;;;;;;5050361;28;20493;-82
2023/04/17 11:28:56;;;;;;;10.17;5.77;;;26.80;63.10;;;;;;5054096;28;20539;-82
2023/04/17 11:31:23;;;;;;;7.20;6.40;;;28.60;66.10;;;;;;5048261;28;20957;-81
2023/04/17 11:33:51;;;;;;;8.13;6.20;;;27.40;55.90;;;;;;5050674;28;20468;-82
2023/04/17 11:36:18;;;;;;;7.30;5.60;;;26.10;56.30;;;;;;5043386;28;20531;-85
2023/04/17 11:38:47;;;;;;;6.83;5.53;;;26.80;55.90;;;;;;5042211;28;20543;-85
2023/04/17 11:41:14;;;;;;;7.33;5.67;;;26.40;56.10;;;;;;5042632;28;20495;-85
2023/04/17 11:43:42;;;;;;;7.63;6.07;;;26.40;56.50;;;;;;5046102;28;20527;-81
2023/04/17 11:46:09;;;;;;;7.47;6.60;;;26.10;55.10;;;;;;5043968;28;20455;-81
2023/04/17 11:48:36;;;;;;;7.27;6.03;;;24.70;55.70;;;;;;5052470;28;20915;-81
2023/04/17 11:51:06;;;;;;;8.43;6.13;;;24.60;57.30;;;;;;5045010;28;20449;-80
2023/04/17 11:53:35;;;;;;;8.70;7.40;;;24.20;56.00;;;;;;5048249;28;20476;-81
2023/04/17 11:56:12;;;;;;;8.87;7.97;;;23.10;55.50;;;;;;5054358;28;20448;-79
2023/04/17 11:58:46;;;;;;;8.87;7.97;;;22.80;55.60;;;;;;5042941;28;20445;-80
2023/04/17 12:01:14;;;;;;;10.07;7.73;;;21.80;55.50;;;;;;5044624;28;20583;-80
2023/04/17 12:03:40;;;;;;;9.77;6.80;;;21.80;57.40;;;;;;5049436;28;20511;-81
2023/04/17 12:06:10;;;;;;;8.50;7.60;;;21.70;57.20;;;;;;5059161;28;20478;-80
2023/04/17 12:08:45;;;;;;;7.90;7.10;;;21.70;58.40;;;;;;5065810;28;20434;-79
2023/04/17 12:11:16;;;;;;;9.20;7.07;;;21.30;59.20;;;;;;5040310;28;20484;-81
2023/04/17 12:13:46;;;;;;;9.33;8.27;;;20.90;59.20;;;;;;5043851;28;20535;-80
2023/04/17 12:16:12;;;;;;;8.70;7.80;;;21.30;59.50;;;;;;5053233;28;20463;-81
2023/04/17 12:18:39;;;;;;;8.90;6.87;;;21.60;59.10;;;;;;5054066;28;20485;-81
2023/04/17 12:21:06;;;;;;;7.13;6.43;;;22.50;62.70;;;;;;5044752;28;20494;-81
2023/04/17 12:23:34;;;;;;;9.43;8.53;;;24.70;58.60;;;;;;5046743;28;20572;-81
2023/04/17 12:26:01;;;;;;;9.17;8.27;;;24.70;56.00;;;;;;5044981;28;20475;-81
2023/04/17 12:28:29;;;;;;;7.67;6.97;;;25.10;58.30;;;;;;5048575;28;20453;-81
2023/04/17 12:30:56;;;;;;;9.07;7.90;;;26.90;58.20;;;;;;5044587;28;20448;-81
2023/04/17 12:33:23;;;;;;;9.17;7.20;;;27.80;55.30;;;;;;5039645;28;20468;-80
2023/04/17 12:35:50;;;;;;;10.10;8.30;;;28.80;53.40;;;;;;5042196;28;20495;-81
2023/04/17 12:38:17;;;;;;;9.83;8.33;;;28.80;52.10;;;;;;5041767;28;20441;-80